createdAt,value
2019-03-11T00:02:58.361Z,9.85
2019-03-11T00:08:03.793Z,10.00
2019-03-11T00:13:09.049Z,11.57
2019-03-11T00:18:14.413Z,13.20
2019-03-11T00:23:19.682Z,10.13
2019-03-11T00:28:24.909Z,15.85
2019-03-11T00:33:30.185Z,13.97
2019-03-11T00:38:35.437Z,11.33
2019-03-11T00:43:40.636Z,16.32
2019-03-11T00:48:47.334Z,15.95
2019-03-11T00:53:52.801Z,14.78
2019-03-11T00:58:59.479Z,14.23
2019-03-11T01:04:04.781Z,19.10
2019-03-11T01:09:10.450Z,16.02
2019-03-11T01:14:16.123Z,13.85
2019-03-11T01:19:21.977Z,17.53
2019-03-11T01:24:27.221Z,19.52
2019-03-11T01:29:32.449Z,19.27
2019-03-11T01:34:39.021Z,17.55
2019-03-11T01:39:44.399Z,17.05
2019-03-11T01:44:49.624Z,13.43
2019-03-11T01:49:54.826Z,10.17
2019-03-11T01:55:00.012Z,13.22
2019-03-11T02:00:06.429Z,14.83
2019-03-11T02:05:11.901Z,20.47
2019-03-11T02:10:17.184Z,17.10
2019-03-11T02:15:23.763Z,9.73
2019-03-11T02:20:29.107Z,2.25
2019-03-11T02:25:34.379Z,1.62
2019-03-11T02:30:39.954Z,2.58
2019-03-11T02:35:45.153Z,2.87
2019-03-11T02:40:50.433Z,2.20
2019-03-11T02:45:55.703Z,2.40
2019-03-11T02:51:01.036Z,3.25
2019-03-11T02:56:06.333Z,5.45
2019-03-11T03:01:30.674Z,1.40
2019-03-11T03:06:35.878Z,1.90
2019-03-11T03:11:41.349Z,1.72
2019-03-11T03:16:46.766Z,1.35
2019-03-11T03:21:51.986Z,0.98
2019-03-11T03:26:57.366Z,1.40
2019-03-11T03:32:02.642Z,1.90
2019-03-11T03:37:08.150Z,1.50
2019-03-11T03:42:13.888Z,0.85
2019-03-11T03:47:19.340Z,0.57
2019-03-11T03:52:24.519Z,1.50
2019-03-11T03:57:29.773Z,1.80
2019-03-11T04:02:34.962Z,0.60
2019-03-11T04:07:40.182Z,1.07
2019-03-11T04:12:45.643Z,1.97
2019-03-11T04:17:51.042Z,1.10
2019-03-11T04:22:56.254Z,1.67
2019-03-11T04:28:01.469Z,1.95
2019-03-11T04:33:06.705Z,0.70
2019-03-11T04:38:11.892Z,1.40
2019-03-11T04:43:17.138Z,0.90
2019-03-11T04:48:22.342Z,2.80
2019-03-11T04:53:27.554Z,3.70
2019-03-11T04:58:32.835Z,1.85
2019-03-11T05:03:38.070Z,4.12
2019-03-11T05:08:43.265Z,1.63
2019-03-11T05:13:48.532Z,2.65
2019-03-11T05:18:53.776Z,3.00
2019-03-11T05:23:59.172Z,3.65
2019-03-11T05:29:04.433Z,6.08
2019-03-11T05:34:09.629Z,2.60
2019-03-11T05:39:15.068Z,1.90
2019-03-11T05:44:20.314Z,4.42
2019-03-11T05:49:25.876Z,4.67
2019-03-11T05:54:31.213Z,2.92
2019-03-11T05:59:36.767Z,5.03
2019-03-11T06:04:41.992Z,5.30
2019-03-11T06:09:47.289Z,8.10
2019-03-11T06:14:52.546Z,6.25
2019-03-11T06:20:19.776Z,5.57
2019-03-11T06:25:25.060Z,6.70
2019-03-11T06:30:30.252Z,6.33
2019-03-11T06:35:35.525Z,5.60
2019-03-11T06:40:40.799Z,6.78
2019-03-11T06:45:46.103Z,5.60
2019-03-11T06:50:51.613Z,5.75
2019-03-11T06:55:57.249Z,5.10
2019-03-11T07:01:02.675Z,6.10
2019-03-11T07:06:09.678Z,13.45
2019-03-11T07:11:15.613Z,6.80
2019-03-11T07:16:20.943Z,13.55
2019-03-11T07:21:26.235Z,7.80
2019-03-11T07:26:31.515Z,7.37
2019-03-11T07:31:37.857Z,8.00
2019-03-11T07:36:43.085Z,8.87
2019-03-11T07:41:48.412Z,8.83
2019-03-11T07:46:53.590Z,7.33
2019-03-11T07:51:59.287Z,7.67
2019-03-11T07:57:04.870Z,5.23
2019-03-11T08:02:10.499Z,6.80
2019-03-11T08:07:15.880Z,6.60
2019-03-11T08:12:21.131Z,7.00
2019-03-11T08:17:26.877Z,8.95
2019-03-11T08:22:33.949Z,6.87
2019-03-11T08:27:39.280Z,7.40
2019-03-11T08:32:44.607Z,12.28
2019-03-11T08:37:49.825Z,6.03
2019-03-11T08:42:55.234Z,5.33
2019-03-11T08:48:00.772Z,4.00
2019-03-11T08:53:06.112Z,6.20
2019-03-11T08:58:11.422Z,3.08
2019-03-11T09:03:16.640Z,3.20
2019-03-11T09:08:21.902Z,2.50
2019-03-11T09:13:27.829Z,2.27
2019-03-11T09:18:33.090Z,3.93
2019-03-11T09:23:38.476Z,3.42
2019-03-11T09:28:43.652Z,3.12
2019-03-11T09:33:48.827Z,4.10
2019-03-11T09:38:54.354Z,4.97
2019-03-11T09:43:59.964Z,5.17
2019-03-11T09:49:05.259Z,4.25
2019-03-11T09:54:10.440Z,5.22
2019-03-11T10:05:37.336Z,6.00
2019-03-11T10:10:42.997Z,6.33
2019-03-11T10:15:48.203Z,6.07
2019-03-11T10:20:53.511Z,6.97
2019-03-11T10:25:59.451Z,6.23
2019-03-11T10:31:05.956Z,6.95
2019-03-11T10:36:11.444Z,5.85
2019-03-11T10:41:16.657Z,5.70
2019-03-11T10:46:22.176Z,6.05
2019-03-11T10:51:27.469Z,6.03
2019-03-11T10:56:33.165Z,7.65
2019-03-11T11:01:38.532Z,8.07
2019-03-11T11:06:43.739Z,6.67
2019-03-11T11:11:49.760Z,9.13
2019-03-11T11:16:55.323Z,10.03
2019-03-11T11:22:01.537Z,7.90
2019-03-11T11:27:08.028Z,5.73
2019-03-11T11:32:13.239Z,5.87
2019-03-11T11:37:18.392Z,6.97
2019-03-11T11:42:23.576Z,7.55
2019-03-11T11:47:29.062Z,8.07
2019-03-11T11:52:34.260Z,6.97
2019-03-11T11:57:39.486Z,6.78
2019-03-11T12:02:44.960Z,7.57
2019-03-11T12:07:50.379Z,6.75
2019-03-11T12:12:55.661Z,6.15
2019-03-11T12:18:00.985Z,6.17
2019-03-11T12:23:07.168Z,7.28
2019-03-11T12:28:12.434Z,7.83
2019-03-11T12:33:20.232Z,7.92
2019-03-11T12:38:24.755Z,5.33
2019-03-11T12:43:30.019Z,5.25
2019-03-11T12:48:35.458Z,7.50
2019-03-11T12:53:40.696Z,8.28
2019-03-11T12:58:45.960Z,8.13
2019-03-11T13:03:51.148Z,8.58
2019-03-11T13:08:56.325Z,7.00
2019-03-11T13:14:01.520Z,4.78
2019-03-11T13:19:13.045Z,5.85
2019-03-11T13:24:14.369Z,4.97
2019-03-11T13:29:19.758Z,6.60
2019-03-11T13:34:25.065Z,8.90
2019-03-11T13:39:30.361Z,4.78
2019-03-11T13:44:35.664Z,7.23
2019-03-11T13:49:41.223Z,7.85
2019-03-11T13:54:46.492Z,8.43
2019-03-11T13:59:51.980Z,7.17
2019-03-11T14:04:57.207Z,17.07
2019-03-11T14:10:02.518Z,12.20
2019-03-11T14:15:10.414Z,11.18
2019-03-11T14:20:16.366Z,8.00
2019-03-11T14:25:21.707Z,10.40
2019-03-11T14:30:26.983Z,5.78
2019-03-11T14:35:32.379Z,7.08
2019-03-11T14:40:37.583Z,7.47
2019-03-11T14:45:42.905Z,10.98
2019-03-11T14:50:48.268Z,11.00
2019-03-11T14:55:54.524Z,7.15
2019-03-11T15:01:32.890Z,7.00
2019-03-11T15:06:39.253Z,9.83
2019-03-11T15:11:45.130Z,9.93
2019-03-11T15:16:51.605Z,8.70
2019-03-11T15:21:57.459Z,10.35
2019-03-11T15:27:03.224Z,8.23
2019-03-11T15:32:08.699Z,11.13
2019-03-11T15:37:14.116Z,8.75
2019-03-11T15:42:19.489Z,6.80
2019-03-11T15:47:25.086Z,7.25
2019-03-11T15:52:32.474Z,8.83
2019-03-11T15:57:40.052Z,8.08
2019-03-11T16:02:45.828Z,10.25
2019-03-11T16:07:51.431Z,6.05
2019-03-11T16:12:58.140Z,9.25
2019-03-11T16:18:03.950Z,6.37
2019-03-11T16:23:09.642Z,7.62
2019-03-11T16:28:15.819Z,6.43
2019-03-11T16:33:21.065Z,6.78
2019-03-11T16:38:26.623Z,7.07
2019-03-11T16:43:31.889Z,5.25
2019-03-11T16:48:37.058Z,8.00
2019-03-11T16:53:42.593Z,5.30
2019-03-11T16:58:47.997Z,7.40
2019-03-11T17:03:53.633Z,7.00
2019-03-11T17:08:58.817Z,6.87
2019-03-11T17:14:04.182Z,9.13
2019-03-11T17:19:09.348Z,7.10
2019-03-11T17:24:14.532Z,10.50
2019-03-11T17:29:19.880Z,9.65
2019-03-11T17:34:25.065Z,6.92
2019-03-11T17:39:30.586Z,10.38
2019-03-11T17:44:36.138Z,25.23
2019-03-11T17:49:41.336Z,50.28
2019-03-11T17:54:46.605Z,19.53
2019-03-11T17:59:52.197Z,35.28
2019-03-11T18:04:57.643Z,57.58
2019-03-11T18:10:03.011Z,37.35
2019-03-11T18:15:09.773Z,25.55
2019-03-11T18:20:15.100Z,24.12
2019-03-11T18:25:20.547Z,8.38
2019-03-11T18:30:25.858Z,8.88
2019-03-11T18:35:33.996Z,8.88
2019-03-11T18:40:38.399Z,6.75
2019-03-11T18:45:43.673Z,10.50
2019-03-11T18:50:49.141Z,7.17
2019-03-11T18:55:54.409Z,6.40
2019-03-11T19:00:59.733Z,8.98
2019-03-11T19:06:07.813Z,7.35
2019-03-11T19:11:13.187Z,9.98
2019-03-11T19:16:18.412Z,8.35
2019-03-11T19:21:23.974Z,7.60
2019-03-11T19:26:31.101Z,8.37
2019-03-11T19:31:36.352Z,10.10
2019-03-11T19:36:41.879Z,9.50
2019-03-11T19:41:47.919Z,9.83
2019-03-11T19:46:53.346Z,9.20
2019-03-11T19:51:58.935Z,8.83
2019-03-11T19:57:04.427Z,9.83
2019-03-11T20:02:09.842Z,9.97
2019-03-11T20:07:16.117Z,10.00
2019-03-11T20:12:22.824Z,9.98
2019-03-11T20:17:29.267Z,10.50
2019-03-11T20:22:34.865Z,10.45
2019-03-11T20:27:41.702Z,10.95
2019-03-11T20:32:48.792Z,7.47
2019-03-11T20:37:54.483Z,11.87
2019-03-11T20:43:00.118Z,13.53
2019-03-11T20:48:05.344Z,10.50
2019-03-11T20:53:10.636Z,10.05
2019-03-11T20:58:16.012Z,9.68
2019-03-11T21:03:21.557Z,10.03
2019-03-11T21:08:26.998Z,12.67
2019-03-11T21:13:32.320Z,10.60
2019-03-11T21:18:38.439Z,9.63
2019-03-11T21:23:44.578Z,14.07
2019-03-11T21:28:50.775Z,10.90
2019-03-11T21:33:59.190Z,13.97
2019-03-11T21:39:07.068Z,12.10
2019-03-11T21:44:14.110Z,10.08
2019-03-11T21:49:19.453Z,11.38
2019-03-11T21:54:25.600Z,11.90
2019-03-11T21:59:30.987Z,13.08
2019-03-11T22:04:36.342Z,10.75
2019-03-11T22:09:42.031Z,11.78
2019-03-11T22:14:47.674Z,11.80
2019-03-11T22:19:53.625Z,12.28
2019-03-11T22:24:58.865Z,13.70
2019-03-11T22:30:04.399Z,9.88
2019-03-11T22:35:13.212Z,12.23
2019-03-11T22:40:17.788Z,12.17
2019-03-11T22:45:23.007Z,12.18
2019-03-11T22:50:28.207Z,11.28
2019-03-11T22:55:33.420Z,12.13
2019-03-11T23:00:57.609Z,11.80
2019-03-11T23:06:04.406Z,12.43
2019-03-11T23:11:09.630Z,14.68
2019-03-11T23:16:15.065Z,11.17
2019-03-11T23:21:20.268Z,9.50
2019-03-11T23:26:25.563Z,10.25
2019-03-11T23:31:30.799Z,13.88
2019-03-11T23:36:36.046Z,10.97
2019-03-11T23:41:41.336Z,13.50
2019-03-11T23:46:46.764Z,12.23
2019-03-11T23:51:52.187Z,12.60
2019-03-11T23:56:57.749Z,12.50
